createdAt,value
2023-04-15T09:44:27.109Z,99750.41
2023-04-15T09:49:28.971Z,99753.79
2023-04-15T09:54:36.493Z,99758.34
2023-04-15T09:59:38.235Z,99761.42
2023-04-15T10:04:44.456Z,99771.31
2023-04-15T10:09:47.084Z,99773.34
2023-04-15T10:14:57.292Z,99776.80
2023-04-15T10:20:02.380Z,99777.02
2023-04-15T10:25:05.924Z,99773.96
2023-04-15T10:30:09.512Z,99776.36
2023-04-15T10:35:12.097Z,99776.38
2023-04-15T10:40:31.790Z,99775.77
2023-04-15T10:45:36.746Z,99778.93
2023-04-15T10:50:39.467Z,99777.88
2023-04-15T10:55:41.270Z,99777.56
2023-04-15T11:00:52.370Z,99783.07
2023-04-15T11:05:54.351Z,99787.10
2023-04-15T11:10:55.996Z,99791.49
2023-04-15T11:16:00.398Z,99790.05
2023-04-15T11:21:04.686Z,99794.61
2023-04-15T11:26:09.915Z,99795.16
2023-04-15T11:31:14.346Z,99803.18
2023-04-15T11:36:15.923Z,99807.02
2023-04-15T11:41:22.017Z,99808.73
2023-04-15T11:46:31.939Z,99811.96
2023-04-15T11:51:35.517Z,99805.89
2023-04-15T11:56:37.040Z,99803.64
2023-04-15T12:01:47.662Z,99805.84
2023-04-15T12:06:49.461Z,99811.38
2023-04-15T12:11:58.430Z,99816.27
2023-04-15T12:17:06.787Z,99827.19
2023-04-15T12:22:15.263Z,99825.11
2023-04-15T12:27:18.106Z,99826.84
2023-04-15T12:32:22.991Z,99827.77
2023-04-15T12:37:26.196Z,99830.66
2023-04-15T12:42:28.057Z,99834.27
2023-04-15T12:47:30.075Z,99823.49
2023-04-15T12:52:31.605Z,99818.44
2023-04-15T12:57:33.107Z,99826.52
2023-04-15T13:02:34.907Z,99835.61
2023-04-15T13:07:36.691Z,99842.97
2023-04-15T13:12:38.253Z,99849.77
2023-04-15T13:17:39.794Z,99857.36
2023-04-15T13:22:41.819Z,99860.02
2023-04-15T13:27:43.778Z,99864.32
2023-04-15T13:32:45.758Z,99869.43
2023-04-15T13:37:47.729Z,99874.75
2023-04-15T13:42:49.748Z,99879.23
2023-04-15T13:47:51.378Z,99872.70
2023-04-15T13:52:53.009Z,99864.91
2023-04-15T13:57:55.036Z,99859.92
2023-04-15T14:02:57.239Z,99859.45
2023-04-15T14:07:59.818Z,99863.48
2023-04-15T14:13:01.376Z,99865.80
2023-04-15T14:18:03.194Z,99858.21
2023-04-15T14:23:04.830Z,99858.14
2023-04-15T14:28:06.564Z,99873.08
2023-04-15T14:33:08.308Z,99874.84
2023-04-15T14:38:11.513Z,99880.25
2023-04-15T14:43:13.423Z,99889.02
2023-04-15T14:48:14.955Z,99885.71
2023-04-15T14:53:16.641Z,99893.90
2023-04-15T14:58:18.369Z,99902.98
2023-04-15T15:03:20.156Z,99904.13
2023-04-15T15:08:21.787Z,99899.39
2023-04-15T15:13:23.290Z,99904.98
2023-04-15T15:18:26.198Z,99903.48
2023-04-15T15:23:27.961Z,99905.52
2023-04-15T15:28:29.669Z,99897.76
2023-04-15T15:33:31.969Z,99899.15
2023-04-15T15:38:33.760Z,99900.67
2023-04-15T15:43:35.928Z,99907.88
2023-04-15T15:48:37.630Z,99922.28
2023-04-15T15:53:39.167Z,99934.96
2023-04-15T15:58:43.850Z,99943.05
2023-04-15T16:03:45.881Z,99943.13
2023-04-15T16:08:47.459Z,99947.71
2023-04-15T16:13:48.984Z,99956.13
2023-04-15T16:18:51.522Z,99961.05
2023-04-15T16:23:53.626Z,99966.89
2023-04-15T16:28:55.253Z,99977.77
2023-04-15T16:33:57.570Z,99974.20
2023-04-15T16:38:59.458Z,99980.28
2023-04-15T16:44:02.078Z,99982.80
2023-04-15T16:49:04.298Z,99997.56
2023-04-15T16:54:06.444Z,100004.02
2023-04-15T16:59:07.985Z,100008.85
2023-04-15T17:04:09.751Z,100006.30
2023-04-15T17:09:11.386Z,100016.60
2023-04-15T17:14:12.953Z,100023.18
2023-04-15T17:19:14.431Z,100030.06
2023-04-15T17:24:16.576Z,100042.49
2023-04-15T17:29:18.082Z,100046.61
2023-04-15T17:34:19.716Z,100062.98
2023-04-15T17:39:21.329Z,100076.71
2023-04-15T17:44:25.060Z,100080.41
2023-04-15T17:49:27.326Z,100086.33
2023-04-15T17:54:28.914Z,100106.23
2023-04-15T17:59:30.428Z,100118.27
2023-04-15T18:04:32.056Z,100129.90
2023-04-15T18:09:33.957Z,100135.91
2023-04-15T18:14:36.601Z,100146.60
2023-04-15T18:19:38.098Z,100151.91
2023-04-15T18:24:39.646Z,100151.92
2023-04-15T18:29:41.722Z,100151.34
2023-04-15T18:34:43.365Z,100154.90
2023-04-15T18:39:45.007Z,100153.27
2023-04-15T18:44:46.660Z,100163.48
2023-04-15T18:49:48.226Z,100171.37
2023-04-15T18:54:49.996Z,100175.38
2023-04-15T18:59:51.928Z,100185.34
2023-04-15T19:04:53.420Z,100194.83
2023-04-15T19:09:54.996Z,100202.79
2023-04-15T19:14:56.588Z,100209.27
2023-04-15T19:19:58.155Z,100215.21
2023-04-15T19:25:00.100Z,100221.27
2023-04-15T19:30:03.358Z,100229.82
2023-04-15T19:35:05.860Z,100232.23
2023-04-15T19:40:09.535Z,100230.58
2023-04-15T19:45:11.568Z,100234.92
2023-04-15T19:50:13.196Z,100239.52
2023-04-15T19:55:14.901Z,100241.70
2023-04-15T20:00:16.956Z,100245.27
2023-04-15T20:05:18.826Z,100250.02
2023-04-15T20:10:21.836Z,100250.73
2023-04-15T20:15:24.135Z,100255.80
2023-04-15T20:20:26.339Z,100254.52
2023-04-15T20:25:27.882Z,100253.02
2023-04-15T20:30:29.636Z,100247.73
2023-04-15T20:35:31.563Z,100239.57
2023-04-15T20:40:33.938Z,100238.52
2023-04-15T20:45:35.573Z,100239.02
2023-04-15T20:50:37.074Z,100241.98
2023-04-15T20:55:40.078Z,100244.83
2023-04-15T21:00:41.614Z,100253.77
2023-04-15T21:05:43.143Z,100255.52
2023-04-15T21:10:49.686Z,100259.31
2023-04-15T21:15:54.107Z,100262.72
2023-04-15T21:21:04.888Z,100267.42
2023-04-15T21:26:06.403Z,100270.79
2023-04-15T21:31:08.380Z,100274.33
2023-04-15T21:36:09.955Z,100274.50
2023-04-15T21:41:11.860Z,100272.45
2023-04-15T21:46:23.229Z,100271.13
2023-04-15T21:51:26.888Z,100273.46
2023-04-15T21:56:28.698Z,100279.73
2023-04-15T22:01:30.729Z,100290.56
2023-04-15T22:06:32.346Z,100295.92
2023-04-15T22:11:34.255Z,100300.39
2023-04-15T22:16:35.938Z,100306.04
2023-04-15T22:21:37.494Z,100316.55
2023-04-15T22:26:39.477Z,100321.56
2023-04-15T22:31:41.985Z,100323.48
2023-04-15T22:36:43.949Z,100323.47
2023-04-15T22:41:46.813Z,100324.23
2023-04-15T22:46:51.740Z,100325.20
2023-04-15T22:51:53.244Z,100330.23
2023-04-15T22:56:55.043Z,100326.05
2023-04-15T23:01:58.225Z,100335.11
2023-04-15T23:07:00.119Z,100338.31
2023-04-15T23:12:02.929Z,100337.66
2023-04-15T23:17:04.465Z,100338.02
2023-04-15T23:22:07.222Z,100337.44
2023-04-15T23:27:08.786Z,100335.42
2023-04-15T23:32:10.536Z,100330.81
2023-04-15T23:37:12.032Z,100334.89
2023-04-15T23:42:13.916Z,100337.52
2023-04-15T23:47:16.150Z,100337.07
2023-04-15T23:52:18.108Z,100338.33
2023-04-15T23:57:19.603Z,100337.40
